Time;durP1;ratioP1;P1;durP2;ratioP2;P2;SDS_P1;SDS_P2;PMS_P1;PMS_P2;Temp;Humidity;BMP_temperature;BMP_pressure;BME280_temperature;BME280_humidity;BME280_pressure;Samples;Min_cycle;Max_cycle;Signal;HPM_P1;HPM_P2
2021/06/26 00:01:41;;;;;;;14.15;10.05;;;;;;;;;;5062081;28;20113;-72
2021/06/26 00:04:07;;;;;;;14.90;9.25;;;;;;;;;;5059216;28;20766;-72
2021/06/26 00:06:33;;;;;;;13.57;9.98;;;;;;;;;;5063738;28;20131;-72
2021/06/26 00:09:00;;;;;;;13.50;9.80;;;;;;;;;;5066080;28;20482;-72
2021/06/26 00:11:26;;;;;;;16.98;10.35;;;;;;;;;;5046945;28;20044;-72
2021/06/26 00:13:52;;;;;;;10.85;8.43;;;;;;;;;;5043121;28;20052;-72
2021/06/26 00:16:19;;;;;;;13.02;8.00;;;;;;;;;;5064309;28;20094;-72
2021/06/26 00:18:45;;;;;;;10.27;7.28;;;;;;;;;;5060716;28;20082;-72
2021/06/26 00:21:11;;;;;;;13.68;8.73;;;;;;;;;;5061521;28;20044;-72
2021/06/26 00:23:38;;;;;;;12.02;9.52;;;;;;;;;;5062519;28;20037;-72
2021/06/26 00:26:04;;;;;;;17.70;9.88;;;;;;;;;;5060381;28;20048;-72
2021/06/26 00:28:31;;;;;;;14.20;10.05;;;;;;;;;;5064084;28;20403;-72
2021/06/26 00:30:57;;;;;;;15.90;11.27;;;;;;;;;;5060098;28;20051;-72
2021/06/26 00:33:23;;;;;;;14.73;11.07;;;;;;;;;;5058309;28;20043;-72
2021/06/26 00:35:49;;;;;;;19.15;13.32;;;;;;;;;;5063455;28;20054;-72
2021/06/26 00:38:16;;;;;;;18.33;13.30;;;;;;;;;;5063550;28;20344;-72
2021/06/26 00:40:42;;;;;;;20.55;12.50;;;;;;;;;;5065116;28;20223;-72
2021/06/26 00:43:08;;;;;;;17.15;11.10;;;;;;;;;;5061840;28;20043;-72
2021/06/26 00:45:34;;;;;;;16.65;12.07;;;;;;;;;;5065219;28;20048;-72
2021/06/26 00:48:01;;;;;;;18.83;12.32;;;;;;;;;;5063146;28;20412;-72
2021/06/26 00:50:29;;;;;;;16.35;11.15;;;;;;;;;;5063229;28;20055;-72
2021/06/26 00:52:55;;;;;;;14.35;11.25;;;;;;;;;;5062358;28;20110;-72
2021/06/26 00:55:22;;;;;;;16.35;12.18;;;;;;;;;;5065054;28;20075;-72
2021/06/26 00:57:50;;;;;;;23.42;12.90;;;;;;;;;;5065621;28;20040;-72
2021/06/26 01:00:17;;;;;;;22.38;14.50;;;;;;;;;;5066260;28;20040;-72
2021/06/26 01:02:43;;;;;;;22.35;14.02;;;;;;;;;;5061706;28;20032;-72
2021/06/26 01:05:10;;;;;;;16.77;12.32;;;;;;;;;;5063975;28;20064;-72
2021/06/26 01:07:37;;;;;;;19.92;13.48;;;;;;;;;;5066442;28;20048;-72
2021/06/26 01:10:04;;;;;;;24.65;15.05;;;;;;;;;;5065373;28;20044;-72
2021/06/26 01:12:31;;;;;;;20.25;13.68;;;;;;;;;;5061171;28;20528;-72
2021/06/26 01:14:57;;;;;;;22.13;14.23;;;;;;;;;;5057932;28;20111;-72
2021/06/26 01:17:23;;;;;;;21.75;15.30;;;;;;;;;;5064152;28;20040;-72
2021/06/26 01:19:49;;;;;;;21.38;14.52;;;;;;;;;;5066769;28;20491;-72
2021/06/26 01:22:20;;;;;;;25.70;16.30;;;;;;;;;;5063624;28;20051;-72
2021/06/26 01:24:47;;;;;;;27.70;16.95;;;;;;;;;;5062021;28;20082;-72
2021/06/26 01:27:15;;;;;;;31.98;20.25;;;;;;;;;;5064737;28;20059;-72
2021/06/26 01:29:47;;;;;;;36.03;22.10;;;;;;;;;;5060628;28;20483;-72
2021/06/26 01:32:13;;;;;;;44.53;25.80;;;;;;;;;;5059223;28;20044;-72
2021/06/26 01:34:39;;;;;;;40.13;26.10;;;;;;;;;;5061131;28;20056;-72
2021/06/26 01:37:06;;;;;;;48.28;27.98;;;;;;;;;;5062805;28;20067;-72
2021/06/26 01:39:33;;;;;;;50.30;28.33;;;;;;;;;;5046567;28;20476;-72
2021/06/26 01:41:59;;;;;;;48.13;28.10;;;;;;;;;;5066675;28;20606;-72
2021/06/26 01:44:25;;;;;;;66.32;32.47;;;;;;;;;;5057713;28;20040;-72
2021/06/26 01:46:51;;;;;;;51.47;29.65;;;;;;;;;;5054538;28;20123;-72
2021/06/26 01:49:18;;;;;;;66.97;33.38;;;;;;;;;;5066990;28;20088;-72
2021/06/26 01:51:44;;;;;;;51.95;29.92;;;;;;;;;;5068814;28;20037;-72
2021/06/26 01:54:11;;;;;;;56.53;32.30;;;;;;;;;;5071322;28;20127;-72
2021/06/26 01:56:38;;;;;;;55.40;31.70;;;;;;;;;;5069689;28;20434;-72
2021/06/26 01:59:05;;;;;;;58.70;33.65;;;;;;;;;;5070047;28;20125;-72
2021/06/26 02:01:32;;;;;;;57.90;31.95;;;;;;;;;;5071870;28;20062;-72
2021/06/26 02:03:59;;;;;;;61.17;32.97;;;;;;;;;;5068119;28;20480;-72
2021/06/26 02:06:25;;;;;;;61.85;33.60;;;;;;;;;;5063618;28;20428;-72
2021/06/26 02:08:51;;;;;;;57.72;33.45;;;;;;;;;;5070283;28;20047;-72
2021/06/26 02:11:17;;;;;;;62.15;34.65;;;;;;;;;;5070437;28;20135;-72
2021/06/26 02:13:43;;;;;;;68.63;34.78;;;;;;;;;;5062782;28;20040;-72
2021/06/26 02:16:10;;;;;;;64.38;35.30;;;;;;;;;;5072032;28;20471;-72
2021/06/26 02:18:36;;;;;;;70.22;36.90;;;;;;;;;;5071048;28;20483;-72
2021/06/26 02:21:03;;;;;;;68.22;38.30;;;;;;;;;;5071422;28;20044;-72
2021/06/26 02:23:29;;;;;;;67.60;38.28;;;;;;;;;;5071406;28;20071;-72
2021/06/26 02:25:55;;;;;;;76.85;41.08;;;;;;;;;;5048358;28;20064;-72
2021/06/26 02:28:22;;;;;;;75.07;40.70;;;;;;;;;;5069214;28;20044;-72
2021/06/26 02:30:48;;;;;;;70.10;40.25;;;;;;;;;;5067974;28;20147;-72
2021/06/26 02:33:15;;;;;;;70.90;39.30;;;;;;;;;;5046842;28;20120;-72
2021/06/26 02:35:41;;;;;;;69.32;39.38;;;;;;;;;;5067112;28;20430;-72
2021/06/26 02:38:07;;;;;;;81.68;41.58;;;;;;;;;;5066728;28;20040;-72
2021/06/26 02:40:33;;;;;;;71.03;39.42;;;;;;;;;;5067120;28;20053;-72
2021/06/26 02:43:00;;;;;;;79.03;41.88;;;;;;;;;;5046369;28;20092;-72
2021/06/26 02:45:26;;;;;;;75.68;41.92;;;;;;;;;;5073121;28;20071;-72
2021/06/26 02:47:52;;;;;;;73.70;40.58;;;;;;;;;;5066710;28;20043;-72
2021/06/26 02:50:19;;;;;;;79.82;44.10;;;;;;;;;;5069985;28;20138;-72
2021/06/26 02:52:46;;;;;;;81.65;46.13;;;;;;;;;;5067858;28;20137;-72
2021/06/26 02:55:12;;;;;;;82.53;44.08;;;;;;;;;;5065691;28;20053;-72
2021/06/26 02:57:38;;;;;;;72.90;43.25;;;;;;;;;;5063758;28;20049;-72
2021/06/26 03:00:06;;;;;;;87.60;48.47;;;;;;;;;;5065249;28;20127;-72
2021/06/26 03:02:32;;;;;;;92.07;49.40;;;;;;;;;;5064327;28;20041;-72
2021/06/26 03:04:58;;;;;;;89.10;48.20;;;;;;;;;;5067128;28;20044;-72
2021/06/26 03:07:24;;;;;;;84.07;48.67;;;;;;;;;;5048572;28;20075;-72
2021/06/26 03:09:50;;;;;;;76.63;45.35;;;;;;;;;;5060656;28;20028;-72
2021/06/26 03:12:17;;;;;;;78.90;48.92;;;;;;;;;;5065063;28;20032;-72
2021/06/26 03:14:43;;;;;;;92.57;51.03;;;;;;;;;;5063022;28;20060;-73
2021/06/26 03:17:10;;;;;;;83.22;48.10;;;;;;;;;;5065389;28;20041;-72
2021/06/26 03:19:37;;;;;;;95.78;50.53;;;;;;;;;;5063870;28;20040;-72
2021/06/26 03:22:04;;;;;;;93.93;49.80;;;;;;;;;;5065314;28;20472;-72
2021/06/26 03:24:30;;;;;;;90.10;49.80;;;;;;;;;;5067034;28;20074;-72
2021/06/26 03:26:57;;;;;;;95.22;50.90;;;;;;;;;;5066377;28;20099;-72
2021/06/26 03:29:24;;;;;;;90.00;51.78;;;;;;;;;;5063471;28;20120;-72
2021/06/26 03:31:51;;;;;;;91.22;52.25;;;;;;;;;;5066505;28;20098;-72
2021/06/26 03:34:17;;;;;;;89.18;51.67;;;;;;;;;;5066326;28;20045;-72
2021/06/26 03:36:44;;;;;;;89.93;51.15;;;;;;;;;;5065998;28;20044;-72
2021/06/26 03:39:12;;;;;;;86.53;52.38;;;;;;;;;;5063843;28;20048;-72
2021/06/26 03:41:38;;;;;;;89.25;51.63;;;;;;;;;;5059139;28;20377;-72
2021/06/26 03:44:05;;;;;;;93.22;52.78;;;;;;;;;;5033188;28;20044;-72
2021/06/26 03:46:31;;;;;;;92.63;51.80;;;;;;;;;;5057761;28;20045;-72
2021/06/26 03:48:57;;;;;;;94.45;52.10;;;;;;;;;;5053616;28;20333;-72
2021/06/26 03:51:24;;;;;;;98.80;53.47;;;;;;;;;;5067543;28;20369;-72
2021/06/26 03:53:53;;;;;;;105.25;54.47;;;;;;;;;;5067559;28;20135;-72
2021/06/26 03:56:19;;;;;;;97.95;53.55;;;;;;;;;;5064832;28;20052;-72
2021/06/26 03:58:45;;;;;;;92.43;51.00;;;;;;;;;;5063628;28;20048;-72
2021/06/26 04:01:12;;;;;;;95.05;52.63;;;;;;;;;;5064832;28;20044;-72
2021/06/26 04:03:38;;;;;;;99.53;51.10;;;;;;;;;;5060810;28;20095;-72
2021/06/26 04:06:04;;;;;;;94.50;50.72;;;;;;;;;;5060666;28;20373;-72
2021/06/26 04:08:31;;;;;;;94.03;51.97;;;;;;;;;;5063866;28;20113;-72
2021/06/26 04:11:17;;;;;;;93.78;51.45;;;;;;;;;;5050387;28;20127;-72
2021/06/26 04:13:43;;;;;;;102.00;53.00;;;;;;;;;;5058235;28;20048;-72
2021/06/26 04:16:09;;;;;;;108.93;54.00;;;;;;;;;;5062954;28;20070;-72
2021/06/26 04:18:36;;;;;;;105.45;53.80;;;;;;;;;;5062958;28;20041;-72
2021/06/26 04:21:02;;;;;;;103.82;54.45;;;;;;;;;;5067375;28;20036;-72
2021/06/26 04:23:28;;;;;;;102.75;55.03;;;;;;;;;;5062154;28;20430;-72
2021/06/26 04:25:54;;;;;;;99.95;55.05;;;;;;;;;;5060462;28;20059;-72
2021/06/26 04:28:21;;;;;;;115.22;59.22;;;;;;;;;;5064002;28;20519;-72
2021/06/26 04:30:48;;;;;;;105.50;56.42;;;;;;;;;;5062139;28;20074;-73
2021/06/26 04:33:14;;;;;;;104.13;58.65;;;;;;;;;;5064127;28;20123;-72
2021/06/26 04:35:41;;;;;;;107.63;58.67;;;;;;;;;;5067509;28;20041;-72
2021/06/26 04:38:07;;;;;;;105.72;59.10;;;;;;;;;;5065911;28;20040;-72
2021/06/26 04:40:33;;;;;;;105.20;60.47;;;;;;;;;;5063884;28;20060;-72
2021/06/26 04:42:59;;;;;;;112.05;61.60;;;;;;;;;;5045523;28;20044;-72
2021/06/26 04:45:26;;;;;;;101.97;58.53;;;;;;;;;;5063138;28;20052;-72
2021/06/26 04:47:52;;;;;;;96.43;57.85;;;;;;;;;;5063352;28;20131;-73
2021/06/26 04:50:18;;;;;;;104.65;60.70;;;;;;;;;;5044385;28;20151;-72
2021/06/26 04:52:45;;;;;;;97.32;59.25;;;;;;;;;;5062378;28;20033;-72
2021/06/26 04:55:12;;;;;;;99.03;57.58;;;;;;;;;;5068627;28;20043;-72
2021/06/26 04:57:38;;;;;;;95.88;58.35;;;;;;;;;;5065296;28;20358;-72
2021/06/26 05:00:05;;;;;;;96.20;59.05;;;;;;;;;;5058766;28;20064;-72
2021/06/26 05:02:31;;;;;;;94.32;58.20;;;;;;;;;;5066541;28;20102;-72
2021/06/26 05:04:58;;;;;;;93.65;57.28;;;;;;;;;;5064325;28;20042;-72
2021/06/26 05:07:24;;;;;;;100.95;59.47;;;;;;;;;;5056244;28;20565;-72
2021/06/26 05:09:50;;;;;;;88.60;56.83;;;;;;;;;;5059802;28;20055;-72
2021/06/26 05:12:16;;;;;;;105.30;62.88;;;;;;;;;;5063313;28;20112;-72
2021/06/26 05:14:43;;;;;;;96.15;56.70;;;;;;;;;;5055146;28;21629;-71
2021/06/26 05:17:09;;;;;;;99.30;61.50;;;;;;;;;;5060420;28;20465;-71
2021/06/26 05:19:35;;;;;;;88.95;57.40;;;;;;;;;;5039762;28;20044;-72
2021/06/26 05:22:01;;;;;;;89.85;58.38;;;;;;;;;;5065690;28;20041;-71
2021/06/26 05:24:28;;;;;;;93.15;58.22;;;;;;;;;;5043672;28;20045;-72
2021/06/26 05:26:54;;;;;;;81.53;55.45;;;;;;;;;;5059656;28;20380;-72
2021/06/26 05:29:20;;;;;;;84.50;57.50;;;;;;;;;;5067747;28;20495;-73
2021/06/26 05:31:47;;;;;;;80.32;57.40;;;;;;;;;;5068656;28;20123;-72
2021/06/26 05:34:13;;;;;;;83.63;55.60;;;;;;;;;;5062828;28;20540;-74
2021/06/26 05:36:40;;;;;;;87.53;59.40;;;;;;;;;;5063523;28;20045;-73
2021/06/26 05:39:06;;;;;;;84.57;56.42;;;;;;;;;;5057335;28;20109;-73
2021/06/26 05:41:32;;;;;;;88.07;59.78;;;;;;;;;;5064107;28;20048;-72
2021/06/26 05:43:58;;;;;;;93.70;58.08;;;;;;;;;;5063071;28;20041;-72
2021/06/26 05:46:25;;;;;;;88.60;58.20;;;;;;;;;;5051735;28;20460;-72
2021/06/26 05:48:51;;;;;;;84.32;55.55;;;;;;;;;;5066530;28;20123;-73
2021/06/26 05:51:18;;;;;;;84.90;54.92;;;;;;;;;;5062671;28;20037;-73
2021/06/26 05:53:44;;;;;;;87.45;56.85;;;;;;;;;;5065183;28;20038;-73
2021/06/26 05:56:11;;;;;;;75.70;52.97;;;;;;;;;;5057344;28;20040;-72
2021/06/26 05:58:37;;;;;;;72.47;51.40;;;;;;;;;;5063746;28;20075;-73
2021/06/26 06:01:06;;;;;;;73.63;50.95;;;;;;;;;;5043932;28;20089;-73
2021/06/26 06:03:33;;;;;;;74.85;50.33;;;;;;;;;;5058011;28;20128;-72
2021/06/26 06:05:59;;;;;;;72.53;50.67;;;;;;;;;;5065849;28;20096;-72
2021/06/26 06:08:25;;;;;;;76.78;51.88;;;;;;;;;;5060599;28;20037;-72
2021/06/26 06:10:52;;;;;;;71.20;49.72;;;;;;;;;;5065228;28;20036;-73
2021/06/26 06:13:19;;;;;;;73.13;50.60;;;;;;;;;;5056962;28;20041;-72
2021/06/26 06:15:46;;;;;;;68.15;49.42;;;;;;;;;;5064505;28;20051;-72
2021/06/26 06:18:12;;;;;;;73.18;49.95;;;;;;;;;;5058849;28;20105;-73
2021/06/26 06:20:39;;;;;;;69.85;50.40;;;;;;;;;;5063277;28;20041;-73
2021/06/26 06:23:05;;;;;;;72.60;50.75;;;;;;;;;;5065652;28;20048;-73
2021/06/26 06:25:32;;;;;;;69.70;48.92;;;;;;;;;;5054638;28;20048;-72
2021/06/26 06:28:01;;;;;;;71.43;50.97;;;;;;;;;;5059529;28;20102;-73
2021/06/26 06:30:27;;;;;;;73.40;49.90;;;;;;;;;;5066902;28;20230;-72
2021/06/26 06:32:54;;;;;;;72.93;49.33;;;;;;;;;;5067845;28;20056;-72
2021/06/26 06:35:20;;;;;;;71.68;49.83;;;;;;;;;;5063181;28;20044;-72
2021/06/26 06:37:47;;;;;;;64.68;47.30;;;;;;;;;;5065777;28;20477;-72
2021/06/26 06:40:13;;;;;;;61.40;43.40;;;;;;;;;;5062390;28;20037;-73
2021/06/26 06:42:41;;;;;;;60.53;45.95;;;;;;;;;;5063978;28;20053;-72
2021/06/26 06:45:08;;;;;;;62.08;45.05;;;;;;;;;;5059810;28;20091;-73
2021/06/26 06:47:34;;;;;;;64.20;46.45;;;;;;;;;;5062955;28;20052;-72
2021/06/26 06:50:00;;;;;;;61.35;44.90;;;;;;;;;;5059666;28;20044;-72
2021/06/26 06:52:27;;;;;;;69.07;48.42;;;;;;;;;;5061262;28;20044;-73
2021/06/26 06:54:53;;;;;;;66.13;46.10;;;;;;;;;;5048222;28;20386;-73
2021/06/26 06:57:20;;;;;;;59.63;43.42;;;;;;;;;;5059742;28;20045;-72
2021/06/26 06:59:46;;;;;;;62.28;45.05;;;;;;;;;;5048158;28;20099;-72
2021/06/26 07:02:14;;;;;;;55.25;41.90;;;;;;;;;;5062330;28;20066;-72
2021/06/26 07:04:40;;;;;;;50.80;38.58;;;;;;;;;;5058166;28;20045;-73
2021/06/26 07:07:06;;;;;;;54.03;41.25;;;;;;;;;;5059880;28;20135;-73
2021/06/26 07:09:32;;;;;;;56.15;40.03;;;;;;;;;;5064870;28;20083;-72
2021/06/26 07:11:59;;;;;;;51.55;39.35;;;;;;;;;;5066140;28;20048;-72
2021/06/26 07:14:26;;;;;;;52.13;39.28;;;;;;;;;;5062108;28;20044;-72
2021/06/26 07:16:53;;;;;;;58.22;40.17;;;;;;;;;;5061961;28;20037;-72
2021/06/26 07:19:19;;;;;;;51.00;39.00;;;;;;;;;;5067886;28;20051;-72
2021/06/26 07:21:46;;;;;;;51.40;36.30;;;;;;;;;;5066619;28;20056;-72
2021/06/26 07:24:12;;;;;;;45.25;35.30;;;;;;;;;;5065634;28;20037;-72
2021/06/26 07:26:39;;;;;;;46.08;34.08;;;;;;;;;;5068023;28;20124;-73
2021/06/26 07:29:05;;;;;;;45.85;32.78;;;;;;;;;;5061946;28;20052;-72
2021/06/26 07:31:32;;;;;;;48.50;34.92;;;;;;;;;;5068848;28;20059;-72
2021/06/26 07:33:59;;;;;;;46.55;35.30;;;;;;;;;;5069885;28;20045;-72
2021/06/26 07:36:25;;;;;;;43.67;33.45;;;;;;;;;;5052202;28;20056;-72
2021/06/26 07:38:51;;;;;;;43.42;33.10;;;;;;;;;;5066113;28;20048;-73
2021/06/26 07:41:18;;;;;;;42.42;32.70;;;;;;;;;;5052641;28;20186;-72
2021/06/26 07:43:44;;;;;;;43.15;31.95;;;;;;;;;;5063622;28;20068;-73
2021/06/26 07:46:10;;;;;;;41.65;32.22;;;;;;;;;;5060276;28;20047;-72
2021/06/26 07:48:36;;;;;;;45.30;34.40;;;;;;;;;;5061228;28;20075;-73
2021/06/26 07:51:03;;;;;;;43.75;34.33;;;;;;;;;;5063944;28;20499;-72
2021/06/26 07:53:29;;;;;;;39.97;30.40;;;;;;;;;;5060715;28;20040;-73
2021/06/26 07:55:55;;;;;;;38.58;31.08;;;;;;;;;;5063232;28;20040;-73
2021/06/26 07:58:23;;;;;;;39.95;31.13;;;;;;;;;;5056247;28;20054;-73
2021/06/26 08:00:49;;;;;;;39.67;31.35;;;;;;;;;;5058360;28;20044;-73
2021/06/26 08:03:16;;;;;;;37.67;30.75;;;;;;;;;;5058280;28;20094;-72
2021/06/26 08:05:43;;;;;;;41.25;31.35;;;;;;;;;;5060953;28;20049;-73
2021/06/26 08:08:09;;;;;;;40.08;30.90;;;;;;;;;;5046657;28;20064;-73
2021/06/26 08:10:35;;;;;;;40.90;31.52;;;;;;;;;;5062202;28;20519;-74
2021/06/26 08:13:02;;;;;;;43.33;31.45;;;;;;;;;;5065179;28;20112;-72
2021/06/26 08:15:28;;;;;;;41.40;31.33;;;;;;;;;;5067491;28;20048;-72
2021/06/26 08:17:55;;;;;;;37.63;30.20;;;;;;;;;;5047625;28;20037;-72
2021/06/26 08:20:22;;;;;;;35.50;30.40;;;;;;;;;;5064277;28;20044;-72
2021/06/26 08:22:48;;;;;;;39.65;30.05;;;;;;;;;;5063745;28;20111;-72
2021/06/26 08:25:14;;;;;;;37.05;29.77;;;;;;;;;;5062952;28;20064;-72
2021/06/26 08:27:41;;;;;;;41.55;31.92;;;;;;;;;;5063268;28;20045;-72
2021/06/26 08:30:07;;;;;;;38.15;31.48;;;;;;;;;;5060650;28;20052;-73
2021/06/26 08:32:33;;;;;;;34.72;28.85;;;;;;;;;;5053193;28;22025;-73
2021/06/26 08:35:00;;;;;;;36.13;30.10;;;;;;;;;;5057141;28;20051;-72
2021/06/26 08:37:26;;;;;;;39.17;29.90;;;;;;;;;;5061631;28;20044;-72
2021/06/26 08:39:53;;;;;;;41.60;31.08;;;;;;;;;;5060065;28;20385;-72
2021/06/26 08:42:20;;;;;;;39.72;30.42;;;;;;;;;;5051687;28;20049;-72
2021/06/26 08:44:49;;;;;;;34.40;28.25;;;;;;;;;;5046236;28;20041;-72
2021/06/26 08:47:16;;;;;;;31.35;26.92;;;;;;;;;;5040328;28;20060;-73
2021/06/26 08:49:42;;;;;;;34.20;27.92;;;;;;;;;;5039672;28;20543;-72
2021/06/26 08:52:08;;;;;;;35.30;28.48;;;;;;;;;;5035588;28;20040;-73
2021/06/26 08:54:35;;;;;;;34.25;27.10;;;;;;;;;;5043703;28;20068;-73
2021/06/26 08:57:01;;;;;;;35.65;29.08;;;;;;;;;;5039483;28;20124;-73
2021/06/26 08:59:27;;;;;;;37.50;29.65;;;;;;;;;;5040994;28;20092;-72
2021/06/26 09:01:53;;;;;;;36.25;29.60;;;;;;;;;;5040570;28;20064;-73
2021/06/26 09:04:20;;;;;;;34.08;26.92;;;;;;;;;;5023716;28;20450;-72
2021/06/26 09:06:49;;;;;;;33.38;26.55;;;;;;;;;;5039237;28;20107;-73
2021/06/26 09:09:15;;;;;;;33.00;27.38;;;;;;;;;;5040089;28;20423;-72
2021/06/26 09:11:42;;;;;;;30.40;25.67;;;;;;;;;;5040598;28;20041;-73
2021/06/26 09:14:18;;;;;;;34.33;26.40;;;;;;;;;;5042096;28;20161;-73
2021/06/26 09:16:51;;;;;;;30.73;25.38;;;;;;;;;;5041953;28;20040;-73
2021/06/26 09:19:18;;;;;;;31.58;26.20;;;;;;;;;;5046227;28;20041;-72
2021/06/26 09:21:55;;;;;;;32.95;25.42;;;;;;;;;;5041418;28;20052;-72
2021/06/26 09:24:21;;;;;;;31.98;26.35;;;;;;;;;;5041849;28;20056;-72
2021/06/26 09:26:56;;;;;;;30.10;25.35;;;;;;;;;;5022870;28;20072;-72
2021/06/26 09:29:22;;;;;;;32.22;25.83;;;;;;;;;;5039710;28;20037;-71
2021/06/26 09:31:50;;;;;;;34.15;27.17;;;;;;;;;;5042176;28;20047;-72
2021/06/26 09:34:16;;;;;;;30.45;25.42;;;;;;;;;;5043280;28;20096;-72
2021/06/26 09:36:43;;;;;;;32.65;26.90;;;;;;;;;;5027256;28;20407;-71
2021/06/26 09:39:11;;;;;;;32.55;26.08;;;;;;;;;;5042542;28;20090;-72
2021/06/26 09:41:40;;;;;;;33.85;25.95;;;;;;;;;;5047158;28;20828;-72
2021/06/26 09:44:08;;;;;;;28.17;23.95;;;;;;;;;;5060875;28;20033;-72
2021/06/26 09:46:45;;;;;;;32.40;25.10;;;;;;;;;;5043745;28;20045;-72
2021/06/26 09:49:11;;;;;;;29.70;24.98;;;;;;;;;;5048076;28;20060;-72
2021/06/26 09:51:37;;;;;;;32.00;26.42;;;;;;;;;;5064834;28;20053;-72
2021/06/26 09:54:05;;;;;;;30.95;25.10;;;;;;;;;;5064509;28;20469;-72
2021/06/26 09:56:44;;;;;;;31.35;26.73;;;;;;;;;;5061113;28;20071;-72
2021/06/26 09:59:11;;;;;;;32.38;27.15;;;;;;;;;;5063619;28;20068;-72
2021/06/26 10:01:40;;;;;;;33.25;25.08;;;;;;;;;;5060958;28;20103;-72
2021/06/26 10:04:07;;;;;;;29.75;24.85;;;;;;;;;;5063267;28;20036;-71
2021/06/26 10:06:34;;;;;;;31.65;27.00;;;;;;;;;;5065892;28;20048;-72
2021/06/26 10:09:01;;;;;;;31.70;25.75;;;;;;;;;;5048362;28;20087;-72
2021/06/26 10:11:29;;;;;;;30.80;26.13;;;;;;;;;;5056972;28;20043;-71
2021/06/26 10:13:55;;;;;;;30.25;25.95;;;;;;;;;;5061431;28;20052;-71
2021/06/26 10:16:23;;;;;;;31.23;25.65;;;;;;;;;;5063900;28;20089;-72
2021/06/26 10:18:49;;;;;;;31.55;26.08;;;;;;;;;;5051204;28;20044;-72
2021/06/26 10:21:16;;;;;;;30.27;23.60;;;;;;;;;;5066993;28;20037;-72
2021/06/26 10:23:42;;;;;;;28.55;23.70;;;;;;;;;;5064784;28;20040;-72
2021/06/26 10:26:10;;;;;;;32.55;24.30;;;;;;;;;;5064194;28;20048;-72
2021/06/26 10:28:46;;;;;;;27.40;23.33;;;;;;;;;;5047783;28;20334;-72
2021/06/26 10:31:13;;;;;;;28.90;23.90;;;;;;;;;;5065292;28;20055;-72
2021/06/26 10:33:40;;;;;;;26.52;22.67;;;;;;;;;;5061110;28;20037;-72
2021/06/26 10:36:07;;;;;;;32.17;24.35;;;;;;;;;;5051950;28;20102;-72
2021/06/26 10:38:41;;;;;;;27.65;22.85;;;;;;;;;;5065975;28;21607;-73
2021/06/26 10:41:16;;;;;;;28.42;23.48;;;;;;;;;;5066327;28;20098;-72
2021/06/26 10:43:53;;;;;;;23.38;20.88;;;;;;;;;;5048957;28;20204;-73
2021/06/26 10:46:19;;;;;;;21.70;17.58;;;;;;;;;;5063018;28;20128;-73
2021/06/26 10:48:59;;;;;;;19.58;16.55;;;;;;;;;;5066040;28;20048;-72
2021/06/26 10:51:33;;;;;;;20.90;16.23;;;;;;;;;;5066671;28;20468;-73
2021/06/26 10:54:10;;;;;;;20.55;17.20;;;;;;;;;;5063873;28;20044;-73
2021/06/26 10:56:37;;;;;;;23.05;17.00;;;;;;;;;;5064950;28;20098;-73
2021/06/26 10:59:11;;;;;;;17.20;14.75;;;;;;;;;;5059680;28;20045;-72
2021/06/26 11:01:37;;;;;;;17.63;15.02;;;;;;;;;;5066519;28;20055;-72
2021/06/26 11:04:08;;;;;;;18.15;13.43;;;;;;;;;;5066527;28;20077;-73
2021/06/26 11:06:35;;;;;;;16.92;14.40;;;;;;;;;;5048923;28;20128;-73
2021/06/26 11:09:03;;;;;;;18.13;14.63;;;;;;;;;;5049804;28;20064;-72
2021/06/26 11:11:31;;;;;;;17.17;14.35;;;;;;;;;;5064682;28;20049;-72
2021/06/26 11:14:05;;;;;;;18.15;14.25;;;;;;;;;;5064486;28;20048;-72
2021/06/26 11:16:31;;;;;;;17.50;14.05;;;;;;;;;;5062729;28;20044;-73
2021/06/26 11:18:57;;;;;;;14.88;13.18;;;;;;;;;;5063556;28;20049;-73
2021/06/26 11:21:23;;;;;;;16.38;14.15;;;;;;;;;;5065064;28;20060;-72
2021/06/26 11:23:51;;;;;;;16.48;13.55;;;;;;;;;;5063612;28;20060;-72
2021/06/26 11:26:17;;;;;;;17.30;12.88;;;;;;;;;;5061980;28;20045;-72
2021/06/26 11:28:43;;;;;;;16.20;13.52;;;;;;;;;;5064118;28;20040;-72
2021/06/26 11:31:10;;;;;;;17.40;13.70;;;;;;;;;;5062916;28;20506;-72
2021/06/26 11:33:39;;;;;;;16.75;12.65;;;;;;;;;;5064381;28;20791;-73
2021/06/26 11:36:09;;;;;;;14.68;12.52;;;;;;;;;;5048752;28;20068;-72
2021/06/26 11:38:36;;;;;;;16.45;13.32;;;;;;;;;;5063028;28;20119;-73
2021/06/26 11:41:03;;;;;;;18.90;14.07;;;;;;;;;;5065226;28;20049;-73
2021/06/26 11:43:29;;;;;;;15.73;14.02;;;;;;;;;;5046859;28;21698;-73
2021/06/26 11:45:56;;;;;;;13.93;12.43;;;;;;;;;;5050071;28;20768;-73
2021/06/26 11:48:22;;;;;;;16.08;13.88;;;;;;;;;;5064753;28;20048;-72
2021/06/26 11:50:49;;;;;;;15.40;13.00;;;;;;;;;;5063216;28;20415;-73
2021/06/26 11:53:19;;;;;;;15.25;13.25;;;;;;;;;;5062915;28;20036;-73
2021/06/26 11:55:58;;;;;;;14.25;12.43;;;;;;;;;;5065117;28;20044;-72
2021/06/26 11:58:45;;;;;;;16.42;11.95;;;;;;;;;;5043916;28;20480;-72
2021/06/26 12:01:12;;;;;;;14.55;11.85;;;;;;;;;;5063501;28;20074;-72
2021/06/26 12:03:38;;;;;;;30.52;24.15;;;;;;;;;;5062567;28;21055;-72
2021/06/26 12:06:08;;;;;;;34.63;28.80;;;;;;;;;;5060234;28;20111;-72
2021/06/26 12:08:42;;;;;;;34.15;28.90;;;;;;;;;;5061702;28;20044;-72
2021/06/26 12:11:11;;;;;;;39.88;30.10;;;;;;;;;;5057694;28;20045;-72
2021/06/26 12:13:38;;;;;;;33.25;27.42;;;;;;;;;;5068586;28;20043;-73
2021/06/26 12:16:04;;;;;;;35.67;29.17;;;;;;;;;;5069914;28;20178;-74
2021/06/26 12:18:30;;;;;;;34.70;26.83;;;;;;;;;;5066730;28;20039;-73
2021/06/26 12:20:57;;;;;;;37.22;28.23;;;;;;;;;;5028095;28;20052;-73
2021/06/26 12:23:23;;;;;;;32.58;26.98;;;;;;;;;;5064804;28;20051;-72
2021/06/26 12:25:49;;;;;;;31.38;26.50;;;;;;;;;;5066955;28;20060;-72
2021/06/26 12:28:16;;;;;;;28.73;23.20;;;;;;;;;;5047779;28;21607;-72
2021/06/26 12:30:43;;;;;;;28.80;23.60;;;;;;;;;;5064702;28;20063;-72
2021/06/26 12:33:10;;;;;;;26.70;22.15;;;;;;;;;;5060590;28;20040;-72
2021/06/26 12:35:37;;;;;;;35.17;27.27;;;;;;;;;;5065471;28;20045;-72
2021/06/26 12:38:04;;;;;;;34.72;27.77;;;;;;;;;;5064972;28;20653;-72
2021/06/26 12:40:35;;;;;;;37.88;28.42;;;;;;;;;;5063127;28;20076;-72
2021/06/26 12:43:05;;;;;;;38.88;29.10;;;;;;;;;;5053055;28;20056;-72
2021/06/26 12:45:32;;;;;;;31.75;27.23;;;;;;;;;;5042323;28;20087;-72
2021/06/26 12:48:10;;;;;;;37.70;27.98;;;;;;;;;;5046882;28;20041;-72
2021/06/26 12:50:46;;;;;;;34.03;26.83;;;;;;;;;;5048358;28;20447;-72
2021/06/26 12:53:13;;;;;;;33.83;26.60;;;;;;;;;;5053948;28;20476;-72
2021/06/26 12:55:39;;;;;;;34.08;25.65;;;;;;;;;;5047457;28;20144;-72
2021/06/26 12:58:09;;;;;;;32.50;25.10;;;;;;;;;;5053689;28;20114;-72
2021/06/26 13:00:36;;;;;;;31.17;24.35;;;;;;;;;;5050589;28;20171;-72
2021/06/26 13:03:02;;;;;;;32.92;25.65;;;;;;;;;;5049773;28;20413;-72
2021/06/26 13:05:29;;;;;;;30.70;23.85;;;;;;;;;;5049041;28;20037;-72
2021/06/26 13:08:04;;;;;;;29.40;24.40;;;;;;;;;;5048962;28;20052;-72
2021/06/26 13:10:31;;;;;;;30.50;24.55;;;;;;;;;;5049595;28;20036;-72
2021/06/26 13:12:57;;;;;;;28.42;23.65;;;;;;;;;;5053212;28;20040;-72
2021/06/26 13:15:24;;;;;;;32.67;24.83;;;;;;;;;;5057348;28;20445;-72
2021/06/26 13:17:50;;;;;;;31.27;24.98;;;;;;;;;;5048198;28;20079;-72
2021/06/26 13:20:16;;;;;;;32.47;25.50;;;;;;;;;;5057748;28;20045;-72
2021/06/26 13:22:43;;;;;;;32.33;25.25;;;;;;;;;;5038111;28;20040;-72
2021/06/26 13:25:10;;;;;;;32.72;26.45;;;;;;;;;;5060174;28;20101;-72
2021/06/26 13:27:40;;;;;;;32.85;26.88;;;;;;;;;;5035928;28;20048;-73
2021/06/26 13:30:08;;;;;;;33.35;25.65;;;;;;;;;;5058017;28;20044;-72
2021/06/26 13:32:34;;;;;;;36.88;26.63;;;;;;;;;;5049720;28;20733;-72
2021/06/26 13:35:00;;;;;;;35.58;27.90;;;;;;;;;;5051790;28;20044;-72
2021/06/26 13:37:27;;;;;;;33.47;27.30;;;;;;;;;;5054917;28;20043;-72
2021/06/26 13:39:53;;;;;;;35.78;28.55;;;;;;;;;;5033715;28;20072;-72
2021/06/26 13:42:20;;;;;;;33.85;28.00;;;;;;;;;;5032989;28;20056;-72
2021/06/26 13:44:46;;;;;;;36.20;26.95;;;;;;;;;;5055613;28;20143;-72
2021/06/26 13:47:12;;;;;;;33.78;26.35;;;;;;;;;;5054028;28;20060;-72
2021/06/26 13:49:38;;;;;;;37.28;27.55;;;;;;;;;;5066649;28;20059;-72
2021/06/26 13:52:07;;;;;;;35.83;27.10;;;;;;;;;;5048361;28;20168;-72
2021/06/26 13:54:33;;;;;;;35.50;27.35;;;;;;;;;;5065749;28;20048;-73
2021/06/26 13:56:59;;;;;;;36.55;28.35;;;;;;;;;;5064852;28;20069;-72
2021/06/26 13:59:26;;;;;;;35.90;27.02;;;;;;;;;;5048761;28;20052;-72
2021/06/26 14:01:52;;;;;;;39.17;27.73;;;;;;;;;;5047699;28;20045;-73
2021/06/26 14:04:18;;;;;;;33.30;26.42;;;;;;;;;;5066417;28;20146;-72
2021/06/26 14:06:45;;;;;;;38.20;26.77;;;;;;;;;;5067165;28;20124;-72
2021/06/26 14:09:11;;;;;;;36.05;27.15;;;;;;;;;;5065671;28;20033;-72
2021/06/26 14:11:38;;;;;;;38.65;27.33;;;;;;;;;;5048220;28;20048;-72
2021/06/26 14:14:05;;;;;;;37.75;26.40;;;;;;;;;;5063738;28;20473;-72
2021/06/26 14:16:31;;;;;;;33.42;26.63;;;;;;;;;;5062197;28;20121;-72